Weather observations for the past three days for
Troy, Oakland/Troy Airport
Imperial (Metric)
Date Time (edt) Wind (mph) Vis. (mi.) Weather Sky Cond. Temperature (ºF) Relative Humidity Wind Chill (°F) Heat Index (°F) Pressure Precipitation (in)
Air Dwpt 6 hour altimeter (in) sea level (mb) 1 hr 3 hr 6 hr
Max. Min.
02 18:15 W 9 10.00 Overcast BKN060 OVC080 48.2 21.2 34% 45 30 0.0
02 17:55 W 12 G 16 10.00 Overcast SCT060 SCT075 OVC080 48.2 21.2 34% 44 30 0.0
02 17:35 Vrbl 5 10.00 Overcast SCT060 OVC075 48.2 21.2 34% 47 30 0.0
02 17:15 W 10 10.00 Overcast FEW060 OVC075 48.2 21.2 34% 44 30 0.0
02 16:55 W 10 10.00 Overcast OVC070 48.2 21.2 34% 44 30 0.0
02 16:35 W 7 10.00 Overcast BKN070 OVC080 46.4 23 40% 43 30.01 0.0
02 16:15 NW 12 10.00 Overcast OVC065 46.4 23 40% 42 30.01 0.0
02 15:55 NW 9 10.00 Overcast BKN065 OVC080 46.4 21.2 37% 42 30.01 0.0
02 15:35 W 8 10.00 Overcast OVC070 46.4 21.2 37% 43 30.02 0.0
02 15:15 NW 12 10.00 Overcast OVC070 46.4 21.2 37% 42 30.03 0.0
02 14:55 NW 9 10.00 Overcast OVC070 46.4 21.2 37% 42 30.03 0.0
02 14:35 NW 6 10.00 Overcast OVC060 46.4 19.4 34% 44 30.03 0.0
02 14:15 Vrbl 6 10.00 Overcast OVC060 46.4 19.4 34% 44 30.03 0.0
02 13:55 NW 8 G 18 10.00 Overcast OVC060 46.4 19.4 47.3 38.7 34% 43 30.04 0.0
02 13:35 W 7 10.00 Mostly Cloudy BKN060 BKN070 46.4 19.4 34% 43 30.04 0.0
02 13:15 NW 12 G 16 10.00 Overcast OVC060 46.4 21.2 37% 42 30.05 0.0
02 12:55 NW 14 G 20 10.00 Overcast OVC060 44.6 21.2 39% 39 30.05 0.0
02 12:35 W 12 G 16 10.00 Mostly Cloudy BKN060 44.6 19.4 37% 39 30.05 0.0
02 12:15 NW 13 G 17 10.00 Mostly Cloudy BKN050 BKN060 44.6 19.4 37% 39 30.05 0.0
02 11:55 NW 6 10.00 Mostly Cloudy BKN050 44.6 21.2 39% 42 30.05 0.0
02 11:35 N 9 10.00 Mostly Cloudy BKN050 44.6 21.2 39% 40 30.05 0.0
02 11:15 NW 9 10.00 Mostly Cloudy BKN050 44.6 23 43% 40 30.05 0.0
02 10:55 Vrbl 6 10.00 Mostly Cloudy BKN050 44.6 23 43% 42 30.05 0.0
02 10:35 NW 9 10.00 Mostly Cloudy FEW040 FEW048 BKN060 42.8 23 46% 38 30.05 0.0
02 10:15 N 7 10.00 Overcast SCT038 BKN048 OVC050 42.8 26.6 53% 39 30.05 0.0
02 09:55 NW 9 10.00 Overcast BKN034 BKN040 OVC047 41 26.6 57% 36 30.05 0.0
02 09:35 NW 6 10.00 Overcast BKN030 OVC039 41 28.4 61% 38 30.05 0.0
02 09:15 N 10 10.00 Overcast BKN028 OVC035 42.8 30.2 61% 38 30.05 0.0
02 08:55 NW 7 10.00 Overcast BKN026 BKN031 OVC039 41 28.4 61% 37 30.05 0.0
02 08:35 N 5 10.00 Mostly Cloudy SCT024 BKN036 41 30.2 66% 38 30.05 0.0
02 08:15 N 6 10.00 Partly Cloudy SCT034 39.2 30.2 70% 36 30.05 0.0
02 07:55 Vrbl 5 10.00 Mostly Cloudy BKN034 39.2 30.2 38.7 36.7 70% 36 30.05 0.0
02 07:35 W 2 10.00 A Few Clouds FEW034 FEW080 37.4 30.2 75% 30.05 0.0
02 07:15 W 2 10.00 Partly Cloudy SCT085 37.4 30.2 75% 30.04 0.0
02 06:55 W 2 10.00 Overcast OVC085 37.4 28.4 70% 30.04 0.0
02 06:35 W 2 10.00 Overcast OVC085 37.4 28.4 70% 30.04 0.0
02 06:15 W 3 10.00 Overcast FEW050 OVC085 37.4 28.4 70% 30.04 0.0
02 05:55 NW 1 10.00 Overcast SCT047 BKN055 OVC085 37.4 28.4 70% 30.03 0.0
02 05:35 NW 2 10.00 Overcast SCT034 OVC044 37.4 28.4 70% 30.03 0.0
02 05:15 NW 2 10.00 Overcast BKN034 OVC048 37.4 28.4 70% 30.03 0.0
02 04:55 Vrbl 1 10.00 Overcast FEW037 BKN050 OVC080 37.4 28.4 70% 30.03 0.0
02 04:35 N 2 10.00 Overcast SCT050 OVC080 37.4 28.4 70% 30.03 0.0
02 04:15 Calm 10.00 Overcast SCT047 BKN055 OVC080 37.4 28.4 70% 30.02 0.0
02 03:55 NW 2 10.00 Overcast SCT042 BKN055 OVC080 37.4 28.4 70% 30.02 0.0
02 03:35 N 2 10.00 Overcast FEW032 FEW048 OVC080 37.4 30.2 75% 30.03 0.0
02 03:15 Vrbl 2 10.00 Overcast SCT030 SCT040 OVC065 37.4 28.4 70% 30.02 0.0
02 02:55 N 3 10.00 Light Rain SCT024 BKN039 OVC055 37.4 30.2 75% 30.03 0.0
02 02:35 Vrbl 5 10.00 Light Drizzle OVC055 37.4 30.2 75% 34 30.03 0.0
02 02:15 NE 5 10.00 Overcast OVC055 37.4 28.4 70% 34 30.04 0.0
02 01:55 NE 6 10.00 Light Rain SCT039 BKN055 OVC075 37.4 30.2 45.7 38.1 75% 33 30.04 0.0
02 01:35 E 6 10.00 Overcast BKN039 OVC045 39.2 28.4 65% 36 30.04 0.0
02 01:15 E 5 10.00 Overcast SCT046 OVC060 39.2 28.4 65% 36 30.04 0.0
02 00:55 E 6 10.00 Overcast BKN049 OVC060 39.2 28.4 65% 36 30.03 0.0
02 00:35 E 5 10.00 Overcast BKN049 OVC060 39.2 28.4 65% 36 30.03 0.0
02 00:15 E 5 10.00 Overcast BKN047 OVC060 39.2 28.4 65% 36 30.02 0.0
01 23:55 E 6 10.00 Overcast OVC043 39.2 28.4 65% 36 30.02 0.0
01 23:35 E 8 10.00 Light Rain OVC039 39.2 28.4 65% 34 30.03 0.0
01 23:15 E 10 10.00 Light Rain BKN030 OVC037 39.2 28.4 65% 33 30.02 0.0
01 22:55 NE 9 10.00 Light Rain BKN028 BKN033 OVC046 39.2 30.2 70% 34 30.02 0.0
01 22:35 E 9 10.00 Overcast SCT024 BKN044 OVC050 41 30.2 66% 36 30.02 0.0
01 22:15 E 9 10.00 Overcast BKN042 OVC050 41 30.2 66% 36 30.01 0.0
01 21:55 E 8 10.00 Overcast BKN044 OVC050 41 30.2 66% 36 30 0.0
01 21:35 E 9 10.00 Overcast BKN044 OVC050 41 30.2 66% 36 29.99 0.0
01 21:15 NW 6 10.00 Overcast FEW043 OVC050 44.6 28.4 53% 42 29.99 0.0
01 20:55 NW 6 10.00 Overcast FEW043 OVC050 44.6 28.4 53% 42 29.98 0.0
01 20:35 N 3 10.00 Overcast BKN050 BKN065 OVC095 44.6 30.2 57% 29.98 0.0
01 20:15 NW 8 10.00 Overcast FEW042 SCT065 OVC095 44.6 30.2 57% 41 29.97 0.0
01 19:55 NW 8 9.00 Overcast SCT041 BKN055 OVC065 46.4 30.2 50.2 45.5 53% 43 29.97 0.0
01 19:35 NW 6 10.00 Overcast BKN048 OVC050 46.4 30.2 53% 44 29.96 0.0
01 19:15 W 6 10.00 Overcast BKN048 OVC050 46.4 28.4 50% 44 29.96 0.0
01 18:55 NW 6 10.00 Overcast FEW042 OVC050 46.4 28.4 50% 44 29.96 0.0
01 18:35 NW 10 10.00 Overcast BKN050 OVC070 48.2 28.4 46% 44 29.96 0.0
01 18:15 NW 10 10.00 Overcast SCT048 BKN055 OVC090 48.2 28.4 46% 44 29.95 0.0
01 17:55 NW 8 10.00 Overcast BKN050 BKN055 OVC075 48.2 28.4 46% 45 29.95 0.0
01 17:35 NW 6 10.00 Overcast SCT050 BKN060 OVC090 48.2 28.4 46% 46 29.94 0.0
01 17:15 W 6 10.00 Overcast SCT060 OVC090 48.2 28.4 46% 46 29.94 0.0
01 16:55 N 8 10.00 Overcast SCT050 BKN065 OVC080 48.2 28.4 46% 45 29.94 0.0
01 16:35 Vrbl 6 10.00 Overcast SCT050 SCT070 OVC080 48.2 28.4 46% 46 29.93 0.0
01 16:15 NW 6 10.00 Overcast SCT050 SCT055 OVC080 48.2 26.6 43% 46 29.93 0.0
01 15:55 Vrbl 5 G 16 10.00 Overcast OVC080 50 26.6 40% 49 29.93 0.0
01 15:35 W 9 10.00 Overcast OVC080 50 26.6 40% 47 29.93 0.0
01 15:15 NW 5 10.00 Overcast FEW055 SCT080 OVC085 50 26.6 40% 49 29.93 0.0
01 14:55 N 7 10.00 Overcast FEW048 SCT050 OVC070 48.2 26.6 43% 46 29.93 0.0
01 14:35 NW 12 G 18 10.00 Overcast OVC050 48.2 28.4 46% 44 29.92 0.0
01 14:15 Vrbl 5 10.00 Overcast BKN050 OVC075 48.2 28.4 46% 47 29.92 0.0
01 13:55 Vrbl 7 10.00 Overcast BKN050 OVC075 48.2 26.6 49.5 41.4 43% 46 29.91 0.0
01 13:35 Vrbl 5 10.00 Overcast BKN048 OVC070 48.2 28.4 46% 47 29.92 0.0
01 13:15 Vrbl 6 10.00 Overcast SCT044 BKN060 OVC070 48.2 30.2 50% 46 29.92 0.0
01 12:55 Calm 10.00 Overcast FEW037 BKN060 OVC070 48.2 32 54% 29.92 0.0
01 12:35 Vrbl 6 10.00 Overcast SCT034 BKN060 OVC070 46.4 32 57% 44 29.92 0.0
01 12:15 N 7 10.00 Overcast BKN034 BKN043 OVC050 46.4 32 57% 43 29.92 0.0
01 11:55 Vrbl 5 10.00 Mostly Cloudy SCT037 BKN043 BKN060 46.4 32 57% 45 29.92 0.0
01 11:35 N 3 10.00 Mostly Cloudy SCT023 SCT032 BKN038 46.4 33.8 62% 29.93 0.0
01 11:15 NE 6 10.00 Mostly Cloudy SCT021 BKN040 BKN070 46.4 35.6 66% 44 29.93 0.0
01 10:55 N 6 10.00 Overcast FEW019 OVC060 44.6 35.6 71% 42 29.94 0.0
01 10:35 N 6 10.00 Light Rain FEW032 SCT047 OVC050 42.8 35.6 76% 40 29.93 0.0
01 10:15 N 8 10.00 Light Rain SCT030 BKN047 OVC050 42.8 35.6 76% 39 29.93 0.0
01 09:55 NE 8 10.00 Light Rain BKN015 BKN022 OVC044 42.8 37.4 81% 39 29.94 0.0
01 09:35 Vrbl 7 10.00 Overcast OVC013 42.8 35.6 76% 39 29.93 0.0
01 09:15 N 7 10.00 Overcast SCT013 OVC085 41 35.6 81% 37 29.94 0.0
01 08:55 N 8 10.00 Overcast OVC085 41 35.6 81% 36 29.93 0.0
01 08:35 NE 8 10.00 Overcast OVC085 41 35.6 81% 36 29.92 0.0
01 08:15 NE 6 10.00 Overcast OVC085 42.8 37.4 81% 40 29.92 0.0
01 07:55 Vrbl 6 10.00 Overcast SCT070 OVC085 42.8 37.4 43.3 41.9 81% 40 29.92 0.0
01 07:35 NE 7 10.00 Overcast BKN033 OVC075 42.8 37.4 81% 39 29.92 0.0
01 07:15 E 5 10.00 Overcast SCT033 OVC080 42.8 35.6 76% 41 29.92 0.0
01 06:55 Vrbl 5 10.00 Overcast OVC080 42.8 35.6 76% 41 29.91 0.0
01 06:35 NE 6 10.00 Overcast OVC090 42.8 33.8 71% 40 29.91 0.0
01 06:15 NE 3 10.00 Overcast OVC080 42.8 33.8 71% 29.9 0.0
01 05:55 Vrbl 2 10.00 Overcast OVC080 42.8 33.8 71% 29.91 0.0
01 05:35 Vrbl 3 10.00 Overcast OVC090 42.8 33.8 71% 29.9 0.0
01 05:15 SE 3 10.00 Mostly Cloudy BKN090 42.8 33.8 71% 29.91 0.0
01 04:55 E 6 10.00 Light Rain FEW042 SCT050 42.8 33.8 71% 40 29.91 0.0
01 04:35 N 3 10.00 Light Rain FEW042 BKN050 BKN065 42.8 33.8 71% 29.93 0.0
01 04:15 Vrbl 3 10.00 Overcast SCT050 BKN065 OVC085 42.8 33.8 71% 29.93 0.0
01 03:55 Vrbl 3 10.00 Overcast FEW060 OVC085 42.8 33.8 71% 29.93 0.0
01 03:35 NE 6 10.00 Overcast OVC085 42.8 32 66% 40 29.92 0.0
01 03:15 E 5 10.00 Overcast OVC075 42.8 32 66% 41 29.93 0.0
01 02:55 E 3 10.00 Overcast OVC075 42.8 32 66% 29.93 0.0
01 02:35 NE 5 10.00 Overcast OVC070 42.8 32 66% 41 29.93 0.0
01 02:15 NE 8 10.00 Overcast OVC080 42.8 32 66% 39 29.93 0.0
01 01:55 NE 3 10.00 Mostly Cloudy BKN070 BKN080 42.8 33.8 51.6 42.8 71% 29.94 0.0
01 01:35 E 7 10.00 Overcast BKN070 OVC080 42.8 33.8 71% 39 29.94 0.0
01 01:15 E 5 10.00 Overcast OVC080 42.8 33.8 71% 41 29.95 0.0
01 00:55 NE 6 10.00 Overcast OVC080 42.8 33.8 71% 40 29.95 0.0
01 00:35 NE 6 10.00 Overcast OVC090 44.6 35.6 71% 42 29.95 0.0
01 00:15 E 6 10.00 Overcast OVC090 44.6 33.8 66% 42 29.95 0.0
30 23:55 E 7 10.00 Overcast FEW065 BKN080 OVC110 44.6 35.6 71% 41 29.95 0.0
30 23:35 E 8 10.00 Overcast BKN065 OVC080 44.6 35.6 71% 41 29.96 0.0
30 23:15 NE 6 10.00 Overcast BKN065 OVC085 44.6 35.6 71% 42 29.96 0.0
30 22:55 E 7 10.00 Overcast SCT065 OVC085 46.4 35.6 66% 43 29.96 0.0
30 22:35 E 3 10.00 Overcast SCT065 OVC085 46.4 35.6 66% 29.95 0.0
30 22:15 E 5 10.00 Mostly Cloudy SCT065 BKN085 46.4 35.6 66% 45 29.95 0.0
30 21:55 E 7 10.00 Mostly Cloudy BKN085 48.2 28.4 46% 46 29.94 0.0
30 21:35 NW 3 10.00 A Few Clouds FEW110 48.2 26.6 43% 29.94 0.0
30 21:15 NW 5 10.00 Mostly Cloudy BKN100 50 26.6 40% 49 29.93 0.0
30 20:55 NW 5 10.00 Mostly Cloudy BKN100 50 26.6 40% 49 29.93 0.0
30 20:35 NW 6 10.00 Partly Cloudy SCT065 SCT080 SCT110 50 24.8 37% 48 29.93 0.0
30 20:15 NW 7 10.00 Overcast BKN065 OVC080 51.8 26.6 38% 29.93 0.0
30 19:55 NW 6 10.00 Mostly Cloudy BKN080 51.8 24.8 55.9 50.9 35% 29.93 0.0
30 19:35 W 8 10.00 Mostly Cloudy FEW070 BKN080 51.8 24.8 35% 29.93 0.0
30 19:15 NW 9 G 21 10.00 Overcast FEW070 OVC080 53.6 24.8 33% 29.93 0.0
30 18:55 W 8 10.00 Overcast FEW070 OVC080 53.6 24.8 33% 29.93 0.0
30 18:35 NW 7 10.00 Mostly Cloudy SCT070 BKN080 53.6 24.8 33% 29.93 0.0
30 18:15 NW 13 10.00 Partly Cloudy FEW065 SCT075 51.8 24.8 35% 29.94 0.0
30 17:55 W 8 G 17 10.00 Mostly Cloudy BKN075 53.6 24.8 33% 29.93 0.0
30 17:35 W 9 G 21 10.00 Overcast OVC065 53.6 24.8 33% 29.93 0.0
30 17:15 NW 10 G 20 10.00 Mostly Cloudy BKN065 BKN080 53.6 24.8 33% 29.92 0.0
30 16:55 W 10 G 17 10.00 Mostly Cloudy BKN065 BKN080 53.6 24.8 33% 29.93 0.0
30 16:35 W 12 G 18 10.00 Overcast OVC065 55.4 23 28% 29.93 0.0
30 16:15 NW 17 G 22 10.00 Mostly Cloudy FEW055 BKN080 51.8 26.6 38% 29.93 0.0
30 15:55 NW 16 G 22 10.00 Overcast SCT055 OVC080 51.8 26.6 38% 29.93 0.0
30 15:35 NW 14 G 21 10.00 Mostly Cloudy SCT055 BKN070 BKN080 51.8 28.4 41% 29.94 0.0
30 15:15 W 8 G 18 10.00 Overcast SCT065 OVC080 51.8 24.8 35% 29.94 0.0
30 14:55 W 12 G 18 10.00 Overcast SCT055 OVC080 53.6 26.6 35% 29.93 0.0
30 14:35 W 9 10.00 Overcast BKN070 OVC080 51.8 28.4 41% 29.94 0.0
30 14:15 W 12 G 16 10.00 Overcast SCT050 BKN070 OVC085 51.8 28.4 41% 29.94 0.0
30 13:55 W 12 10.00 Mostly Cloudy SCT050 BKN080 51.8 26.6 53.2 42.6 38% 29.94 0.0
30 13:35 NW 8 10.00 Mostly Cloudy BKN050 51.8 26.6 38% 29.94 0.0
30 13:15 W 12 G 20 10.00 Partly Cloudy SCT050 SCT065 53.6 28.4 38% 29.94 0.0
30 12:55 W 10 G 20 10.00 Mostly Cloudy SCT055 BKN065 51.8 28.4 41% 29.95 0.0
30 12:35 W 15 10.00 Partly Cloudy SCT049 SCT085 50 28.4 43% 45 29.95 0.0
30 12:15 Vrbl 6 10.00 Mostly Cloudy SCT049 BKN075 51.8 28.4 41% 29.95 0.0
30 11:55 NW 10 G 18 10.00 Overcast SCT049 OVC075 50 28.4 43% 46 29.95 0.0
30 11:35 W 15 G 21 10.00 Overcast FEW047 OVC075 50 28.4 43% 45 29.95 0.0
30 11:15 NW 15 10.00 Overcast FEW043 SCT075 OVC090 48.2 28.4 46% 43 29.95 0.0
30 10:55 W 14 G 18 10.00 Mostly Cloudy SCT041 BKN090 48.2 32 54% 43 29.95 0.0
30 10:35 W 9 10.00 Partly Cloudy FEW036 FEW041 SCT090 48.2 30.2 50% 45 29.95 0.0
30 10:15 NW 7 10.00 Mostly Cloudy BKN090 46.4 32 57% 43 29.94 0.0
30 09:55 W 10 10.00 Partly Cloudy SCT090 46.4 32 57% 42 29.94 0.0
30 09:35 N 8 10.00 Partly Cloudy FEW028 SCT090 44.6 32 61% 41 29.93 0.0
30 09:15 NW 12 10.00 A Few Clouds FEW028 FEW110 44.6 33.8 66% 39 29.94 0.0
30 08:55 NW 9 10.00 Partly Cloudy SCT110 44.6 35.6 71% 40 29.94 0.0
30 08:35 NW 12 10.00 Fair CLR 42.8 37.4 81% 37 29.93 0.0
30 08:15 NW 13 10.00 Mostly Cloudy BKN014 BKN021 42.8 37.4 81% 37 29.94 0.0
30 07:55 NW 5 10.00 Overcast OVC016 42.8 37.4 43 41.5 81% 41 29.94 0.0
30 07:35 NW 8 10.00 Overcast OVC016 42.8 37.4 81% 39 29.93 0.0
30 07:15 NW 9 10.00 Overcast BKN016 OVC075 42.8 37.4 81% 38 29.93 0.0
30 06:55 NW 7 10.00 Overcast SCT030 BKN075 OVC085 42.8 39.2 87% 39 29.93 0.0
30 06:35 W 6 10.00 Overcast BKN030 OVC036 42.8 37.4 81% 40 29.92 0.0
30 06:15 NW 8 10.00 Overcast OVC036 41 37.4 87% 36 29.92 0.0
30 05:55 NW 7 10.00 Overcast BKN039 OVC047 41 37.4 87% 37 29.92 0.0
30 05:35 NW 8 10.00 Overcast OVC045 42.8 37.4 81% 39 29.92 0.0
30 05:15 NW 6 10.00 Overcast BKN044 BKN055 OVC065 42.8 37.4 81% 40 29.92 0.0
30 04:55 NW 5 10.00 Overcast SCT044 OVC065 41 35.6 81% 38 29.91 0.0
30 04:35 NW 5 10.00 Overcast BKN042 OVC055 42.8 35.6 76% 41 29.91 0.0
30 04:15 NW 5 10.00 Overcast BKN042 OVC055 42.8 35.6 76% 41 29.91 0.0
30 03:55 NW 7 10.00 Overcast OVC042 42.8 35.6 76% 39 29.9 0.0
30 03:35 N 6 10.00 Overcast BKN044 OVC050 42.8 35.6 76% 40 29.9 0.0
30 03:15 N 7 10.00 Overcast OVC049 42.8 35.6 76% 39 29.9 0.0
30 02:55 N 8 10.00 Overcast OVC049 42.8 35.6 76% 39 29.91 0.0
30 02:35 N 7 10.00 Overcast BKN049 OVC065 42.8 35.6 76% 39 29.91 0.0
30 02:15 N 5 10.00 Overcast BKN047 OVC065 42.8 37.4 81% 41 29.91 0.0
30 01:55 NW 7 10.00 Overcast OVC045 42.8 35.6 48.4 42.3 76% 39 29.91 0.0
30 01:35 N 7 10.00 Light Rain SCT038 OVC047 42.8 35.6 76% 39 29.92 0.0
30 01:15 NW 3 10.00 Light Rain OVC036 42.8 39.2 87% 29.92 0.0
30 00:55 N 3 10.00 Light Rain SCT028 BKN036 OVC049 42.8 37.4 81% 29.92 0.0 0.01
30 00:35 Vrbl 3 10.00 Light Rain FEW026 SCT033 BKN045 42.8 37.4 81% 29.91 0.0
30 00:15 N 7 10.00 Light Rain FEW035 BKN045 44.6 35.6 71% 41 29.91 0.0
29 23:35 Vrbl 7 10.00 Light Rain OVC039 44.6 35.6 71% 41 29.91 0.0
29 23:15 N 3 10.00 Light Rain BKN039 OVC049 44.6 37.4 76% 29.91 0.0
29 22:55 Vrbl 3 10.00 Light Rain OVC039 44.6 39.2 81% 29.91 0.0
29 22:35 Vrbl 3 10.00 Light Rain OVC037 44.6 39.2 81% 29.91 0.0
29 22:15 N 5 10.00 Light Rain OVC039 44.6 39.2 81% 43 29.9 0.0
29 21:55 N 3 10.00 Light Rain OVC039 44.6 39.2 81% 29.89 0.0 0.01
29 21:35 N 9 10.00 Light Rain OVC037 46.4 37.4 71% 42 29.89 0.0
29 21:15 NE 8 10.00 Overcast SCT030 OVC037 46.4 37.4 71% 43 29.88 0.0
29 20:55 NE 13 10.00 Overcast BKN030 OVC035 46.4 37.4 71% 41 29.87 0.0
29 20:35 NE 14 10.00 Overcast OVC032 48.2 41 76% 43 29.87 0.0
29 20:15 NE 7 10.00 Overcast FEW014 FEW020 OVC030 48.2 41 76% 46 29.86 0.0
29 19:55 E 10 10.00 Light Drizzle SCT016 SCT024 OVC036 48.2 42.8 51.6 48.4 82% 44 29.85 0.0
29 19:35 NE 8 10.00 Overcast OVC036 50 44.6 82% 47 29.85 0.0
29 19:15 NE 7 10.00 Overcast SCT021 SCT028 OVC034 50 44.6 82% 48 29.85 0.0
29 18:55 Vrbl 3 10.00 Light Drizzle BKN021 OVC027 50 44.6 82% 29.85 0.0
29 18:35 N 3 10.00 Light Rain BKN025 OVC035 50 44.6 82% 29.84 0.0
Date Time (edt) Wind (mph) Vis. (mi.) Weather Sky Cond. Air Dwpt Max. Min. Relative Humidity Wind Chill (°F) Heat Index (°F) altimeter (in) sea level (mb) 1 hr 3 hr 6 hr
6 hour
Temperature (ºF) Pressure Precipitation (in)